Time;durP1;ratioP1;P1;durP2;ratioP2;P2;SDS_P1;SDS_P2;PMS_P1;PMS_P2;Temp;Humidity;BMP_temperature;BMP_pressure;BME280_temperature;BME280_humidity;BME280_pressure;Samples;Min_cycle;Max_cycle;Signal;HPM_P1;HPM_P2
2022/04/03 00:01:40;;;;;;;37.13;20.83;;;26.20;99.90;;;;;;5055453;28;20376;-68
2022/04/03 00:04:06;;;;;;;28.75;20.13;;;26.10;99.90;;;;;;5055604;28;20028;-66
2022/04/03 00:06:33;;;;;;;27.17;19.20;;;26.00;99.90;;;;;;5054735;28;20099;-67
2022/04/03 00:09:01;;;;;;;36.22;20.35;;;26.10;99.90;;;;;;5055074;28;20052;-67
2022/04/03 00:11:30;;;;;;;34.17;24.27;;;26.20;99.90;;;;;;5054580;28;20033;-67
2022/04/03 00:13:57;;;;;;;31.83;24.48;;;26.20;99.90;;;;;;5054709;28;20053;-67
2022/04/03 00:16:23;;;;;;;34.38;24.00;;;26.20;99.90;;;;;;5054838;28;20074;-68
2022/04/03 00:18:50;;;;;;;34.22;23.27;;;26.20;99.90;;;;;;5054665;28;20024;-68
2022/04/03 00:21:19;;;;;;;30.65;21.63;;;26.10;99.90;;;;;;5053885;28;20480;-67
2022/04/03 00:23:48;;;;;;;37.15;23.23;;;26.20;99.90;;;;;;5054326;28;20040;-66
2022/04/03 00:26:15;;;;;;;31.52;21.80;;;26.20;99.90;;;;;;5061293;28;20044;-65
2022/04/03 00:28:42;;;;;;;27.27;21.02;;;26.10;99.90;;;;;;5060809;28;20025;-65
2022/04/03 00:31:10;;;;;;;27.73;18.88;;;26.20;99.90;;;;;;5054785;28;20056;-67
2022/04/03 00:33:36;;;;;;;26.83;20.00;;;26.20;99.90;;;;;;5060544;28;20044;-65
2022/04/03 00:36:03;;;;;;;28.00;19.25;;;26.20;99.90;;;;;;5056502;28;20041;-67
2022/04/03 00:38:30;;;;;;;26.80;18.55;;;26.30;99.90;;;;;;5053805;28;20029;-65
2022/04/03 00:40:58;;;;;;;26.05;17.73;;;26.30;99.90;;;;;;5053766;28;20051;-65
2022/04/03 00:43:25;;;;;;;21.80;17.75;;;26.40;99.90;;;;;;5053986;28;20029;-65
2022/04/03 00:45:53;;;;;;;25.83;16.48;;;26.40;99.90;;;;;;5053804;28;20395;-65
2022/04/03 00:48:20;;;;;;;28.90;18.83;;;26.50;99.90;;;;;;5054001;28;20032;-65
2022/04/03 00:50:47;;;;;;;24.65;17.63;;;26.50;99.90;;;;;;5053811;28;20033;-65
2022/04/03 00:53:14;;;;;;;24.00;16.85;;;26.50;99.90;;;;;;5053524;28;20522;-66
2022/04/03 00:55:43;;;;;;;23.33;17.73;;;26.50;99.90;;;;;;5053297;28;20040;-65
2022/04/03 00:58:11;;;;;;;25.38;17.60;;;26.50;99.90;;;;;;5053184;28;20518;-66
2022/04/03 01:00:37;;;;;;;32.70;19.38;;;26.50;99.90;;;;;;5053650;28;20111;-66
2022/04/03 01:03:05;;;;;;;25.23;18.33;;;26.60;99.90;;;;;;5053711;28;20017;-65
2022/04/03 01:05:32;;;;;;;25.88;17.92;;;26.60;99.90;;;;;;5053491;28;20037;-65
2022/04/03 01:07:58;;;;;;;25.60;18.48;;;26.60;99.90;;;;;;5053573;28;20395;-65
2022/04/03 01:10:25;;;;;;;24.67;18.65;;;26.60;99.90;;;;;;5053581;28;20021;-65
2022/04/03 01:12:51;;;;;;;30.75;21.15;;;26.60;99.90;;;;;;5053219;28;20029;-67
2022/04/03 01:15:19;;;;;;;26.50;18.85;;;26.60;99.90;;;;;;5053696;28;20025;-65
2022/04/03 01:17:46;;;;;;;26.38;18.83;;;26.70;99.90;;;;;;5053435;28;20021;-66
2022/04/03 01:20:13;;;;;;;35.60;18.73;;;26.70;99.90;;;;;;5053515;28;20095;-66
2022/04/03 01:22:41;;;;;;;28.13;19.13;;;26.70;99.90;;;;;;5053469;28;20039;-66
2022/04/03 01:25:10;;;;;;;21.60;15.65;;;26.70;99.90;;;;;;5053167;28;20023;-69
2022/04/03 01:27:38;;;;;;;23.35;15.93;;;26.70;99.90;;;;;;5052791;28;20027;-65
2022/04/03 01:30:06;;;;;;;20.95;16.13;;;26.70;99.90;;;;;;5053206;28;20025;-65
2022/04/03 01:32:33;;;;;;;25.05;17.92;;;26.80;99.90;;;;;;5053082;28;20104;-65
2022/04/03 01:35:00;;;;;;;21.98;18.10;;;26.80;99.90;;;;;;5052809;28;20049;-64
2022/04/03 01:37:28;;;;;;;23.13;17.75;;;26.90;99.90;;;;;;5053406;28;20021;-65
2022/04/03 01:39:55;;;;;;;28.30;20.00;;;26.90;99.90;;;;;;5058098;28;20025;-67
2022/04/03 01:42:21;;;;;;;22.50;17.70;;;27.00;99.90;;;;;;5053409;28;20033;-65
2022/04/03 01:44:48;;;;;;;24.48;18.90;;;27.00;99.90;;;;;;5053358;28;20391;-64
2022/04/03 01:47:15;;;;;;;25.45;19.65;;;27.00;99.90;;;;;;5053112;28;20064;-64
2022/04/03 01:49:41;;;;;;;27.65;19.63;;;27.00;99.90;;;;;;5053245;28;20032;-64
2022/04/03 01:52:08;;;;;;;24.13;19.30;;;27.00;99.90;;;;;;5053242;28;20503;-64
2022/04/03 01:54:35;;;;;;;29.85;20.27;;;27.00;99.90;;;;;;5053169;28;20052;-66
2022/04/03 01:57:02;;;;;;;26.30;18.63;;;27.00;99.90;;;;;;5052730;28;20104;-62
2022/04/03 01:59:32;;;;;;;32.03;22.05;;;27.10;99.90;;;;;;5052147;22;20103;-65
2022/04/03 02:01:58;;;;;;;35.33;23.00;;;27.20;99.90;;;;;;5051131;28;20025;-64
2022/04/03 02:04:25;;;;;;;28.25;22.30;;;27.20;99.90;;;;;;5049437;28;20361;-65
2022/04/03 02:06:52;;;;;;;33.38;23.17;;;27.30;99.90;;;;;;5053421;28;20430;-65
2022/04/03 02:09:19;;;;;;;31.27;23.33;;;27.30;99.90;;;;;;5072925;28;20029;-64
2022/04/03 02:11:48;;;;;;;40.90;24.58;;;27.30;99.90;;;;;;5072976;28;20017;-63
2022/04/03 02:14:15;;;;;;;30.55;23.00;;;27.40;99.90;;;;;;5070652;28;20012;-64
2022/04/03 02:16:42;;;;;;;28.58;22.00;;;27.40;99.90;;;;;;5071105;28;20067;-64
2022/04/03 02:19:09;;;;;;;28.85;20.88;;;27.50;99.90;;;;;;5072397;28;20104;-65
2022/04/03 02:21:35;;;;;;;37.65;24.30;;;27.50;99.90;;;;;;5071925;28;20039;-63
2022/04/03 02:24:02;;;;;;;31.92;25.67;;;27.70;99.90;;;;;;5058882;28;20035;-64
2022/04/03 02:26:29;;;;;;;34.80;26.52;;;27.80;99.90;;;;;;5033036;28;20026;-64
2022/04/03 02:28:57;;;;;;;32.03;25.70;;;27.90;99.90;;;;;;5040019;28;20037;-64
2022/04/03 02:31:23;;;;;;;27.27;22.10;;;28.00;99.90;;;;;;5052600;28;20025;-65
2022/04/03 02:33:50;;;;;;;32.88;23.02;;;28.10;99.90;;;;;;5052695;28;20518;-66
2022/04/03 02:36:17;;;;;;;30.30;21.70;;;28.20;99.90;;;;;;5052621;28;20037;-65
2022/04/03 02:38:43;;;;;;;25.90;17.48;;;28.30;99.90;;;;;;5057415;28;20052;-63
2022/04/03 02:41:12;;;;;;;20.55;16.90;;;28.40;99.90;;;;;;5060229;28;20056;-65
2022/04/03 02:43:39;;;;;;;27.75;20.70;;;28.50;99.90;;;;;;5053480;28;20028;-63
2022/04/03 02:46:06;;;;;;;30.77;20.23;;;28.60;99.90;;;;;;5056200;28;20025;-66
2022/04/03 02:48:33;;;;;;;29.33;21.80;;;28.70;99.90;;;;;;5056144;28;20036;-66
2022/04/03 02:51:01;;;;;;;25.58;19.45;;;28.70;99.90;;;;;;5056487;28;20021;-65
2022/04/03 02:53:28;;;;;;;23.05;18.15;;;28.70;99.90;;;;;;5056028;28;20028;-64
2022/04/03 02:55:55;;;;;;;28.50;19.00;;;28.80;99.90;;;;;;5055652;28;20083;-64
2022/04/03 02:58:22;;;;;;;23.05;17.08;;;29.00;99.90;;;;;;5056053;28;20126;-65
2022/04/03 03:00:49;;;;;;;22.48;17.30;;;29.20;99.90;;;;;;5056017;28;20457;-66
2022/04/03 03:03:16;;;;;;;22.65;16.73;;;29.30;99.90;;;;;;5056010;28;20097;-66
2022/04/03 03:05:44;;;;;;;24.33;17.83;;;29.40;99.90;;;;;;5055778;28;20025;-64
2022/04/03 03:08:11;;;;;;;26.08;18.42;;;29.50;99.90;;;;;;5055858;28;20029;-64
2022/04/03 03:10:40;;;;;;;21.83;17.27;;;29.60;99.90;;;;;;5055779;28;20058;-66
2022/04/03 03:13:08;;;;;;;23.60;15.88;;;29.50;99.90;;;;;;5055709;28;20438;-67
2022/04/03 03:15:35;;;;;;;23.55;17.77;;;29.50;99.90;;;;;;5055583;28;20033;-65
2022/04/03 03:18:01;;;;;;;22.70;17.42;;;29.50;99.90;;;;;;5055518;28;20048;-66
2022/04/03 03:20:28;;;;;;;16.50;12.63;;;29.50;99.90;;;;;;5055389;28;20040;-63
2022/04/03 03:22:55;;;;;;;15.20;11.48;;;29.60;99.90;;;;;;5055609;28;20123;-67
2022/04/03 03:25:21;;;;;;;17.65;12.38;;;29.70;99.90;;;;;;5056086;28;20070;-67
2022/04/03 03:27:48;;;;;;;19.42;11.75;;;29.90;99.90;;;;;;5055910;28;20017;-67
2022/04/03 03:30:15;;;;;;;14.07;10.77;;;29.90;99.90;;;;;;5041226;28;20087;-68
2022/04/03 03:32:42;;;;;;;18.00;12.10;;;29.90;99.90;;;;;;5046669;28;20057;-68
2022/04/03 03:35:10;;;;;;;16.08;11.07;;;29.90;99.90;;;;;;5055404;28;20028;-69
2022/04/03 03:37:40;;;;;;;16.10;11.43;;;29.90;99.90;;;;;;5055716;28;20025;-68
2022/04/03 03:40:11;;;;;;;15.80;11.13;;;29.90;99.90;;;;;;5055200;28;20025;-67
2022/04/03 03:42:40;;;;;;;17.90;11.15;;;29.90;99.90;;;;;;5055155;28;20024;-68
2022/04/03 03:45:08;;;;;;;16.10;11.05;;;29.90;99.90;;;;;;5055298;28;20502;-65
2022/04/03 03:47:35;;;;;;;20.05;10.93;;;29.80;99.90;;;;;;5055229;28;20116;-68
2022/04/03 03:50:02;;;;;;;12.05;9.90;;;29.90;99.90;;;;;;5055240;28;20029;-66
2022/04/03 03:52:29;;;;;;;18.25;11.35;;;30.00;99.90;;;;;;5055477;28;20529;-66
2022/04/03 03:54:59;;;;;;;14.63;11.00;;;30.00;99.90;;;;;;5053909;28;20037;-66
2022/04/03 03:57:26;;;;;;;15.90;11.35;;;30.10;99.90;;;;;;5054726;28;20394;-66
2022/04/03 03:59:52;;;;;;;20.75;12.43;;;30.10;99.90;;;;;;5054974;28;20032;-64
2022/04/03 04:02:19;;;;;;;14.95;11.52;;;30.20;99.90;;;;;;5055004;28;20021;-66
2022/04/03 04:04:49;;;;;;;17.70;11.48;;;30.20;99.90;;;;;;5055071;28;20055;-66
2022/04/03 04:07:15;;;;;;;16.75;11.65;;;30.40;99.90;;;;;;5054776;28;20099;-67
2022/04/03 04:09:42;;;;;;;15.10;11.70;;;30.50;99.90;;;;;;5054519;28;20033;-65
2022/04/03 04:12:09;;;;;;;15.63;11.35;;;30.60;99.90;;;;;;5054656;28;20025;-65
2022/04/03 04:14:38;;;;;;;16.58;12.13;;;30.60;99.90;;;;;;5054270;28;20029;-65
2022/04/03 04:17:08;;;;;;;17.60;12.45;;;30.80;99.90;;;;;;5054424;28;20434;-66
2022/04/03 04:19:36;;;;;;;15.23;11.68;;;30.80;99.90;;;;;;5054735;28;20105;-65
2022/04/03 04:22:03;;;;;;;12.88;11.30;;;30.80;99.90;;;;;;5054560;28;20036;-66
2022/04/03 04:24:30;;;;;;;16.15;12.63;;;30.80;99.90;;;;;;5054836;28;20028;-66
2022/04/03 04:26:58;;;;;;;17.42;12.82;;;30.90;99.90;;;;;;5054500;28;20029;-65
2022/04/03 04:29:24;;;;;;;14.80;12.10;;;30.90;99.90;;;;;;5054175;28;20037;-67
2022/04/03 04:31:51;;;;;;;14.18;11.38;;;31.00;99.90;;;;;;5054445;28;20449;-67
2022/04/03 04:34:18;;;;;;;20.20;12.57;;;31.10;99.90;;;;;;5054195;28;20029;-66
2022/04/03 04:36:44;;;;;;;16.02;11.60;;;31.10;99.90;;;;;;5054167;28;20046;-67
2022/04/03 04:39:11;;;;;;;14.60;11.38;;;31.20;99.90;;;;;;5048154;28;20016;-67
2022/04/03 04:41:38;;;;;;;18.55;12.65;;;31.20;99.90;;;;;;5042824;28;20032;-66
2022/04/03 04:44:05;;;;;;;17.10;12.50;;;31.40;99.90;;;;;;5034468;28;20064;-65
2022/04/03 04:46:32;;;;;;;17.60;11.63;;;31.40;99.90;;;;;;5034338;28;20029;-67
2022/04/03 04:48:58;;;;;;;14.95;12.00;;;31.40;99.90;;;;;;5034267;28;20017;-68
2022/04/03 04:51:25;;;;;;;15.85;12.90;;;31.50;99.90;;;;;;5033924;28;20033;-66
2022/04/03 04:53:52;;;;;;;17.38;12.18;;;31.60;99.90;;;;;;5041471;28;20040;-65
2022/04/03 04:56:19;;;;;;;14.73;11.57;;;31.70;99.90;;;;;;5045680;28;20036;-65
2022/04/03 04:58:45;;;;;;;15.40;12.40;;;31.70;99.90;;;;;;5040446;28;20037;-66
2022/04/03 05:01:12;;;;;;;15.57;11.13;;;31.70;99.30;;;;;;5053990;28;20024;-64
2022/04/03 05:03:38;;;;;;;17.65;12.90;;;31.80;99.90;;;;;;5053955;28;20096;-67
2022/04/03 05:06:05;;;;;;;22.55;12.30;;;31.80;99.20;;;;;;5053337;28;20466;-66
2022/04/03 05:08:35;;;;;;;15.55;11.60;;;31.80;99.90;;;;;;5053605;28;20025;-68
2022/04/03 05:11:02;;;;;;;14.40;12.18;;;31.90;99.10;;;;;;5053533;28;20056;-69
2022/04/03 05:13:29;;;;;;;14.15;11.95;;;31.80;99.90;;;;;;5051409;28;20021;-66
2022/04/03 05:15:56;;;;;;;16.73;12.50;;;32.00;98.90;;;;;;5041172;28;20108;-68
2022/04/03 05:18:23;;;;;;;14.60;12.23;;;31.90;98.70;;;;;;5042243;28;20031;-66
2022/04/03 05:20:50;;;;;;;16.33;12.93;;;32.00;99.70;;;;;;5052852;28;20415;-65
2022/04/03 05:23:17;;;;;;;14.25;12.05;;;32.10;99.30;;;;;;5053416;28;20074;-64
2022/04/03 05:25:45;;;;;;;18.88;12.00;;;32.20;99.40;;;;;;5050926;28;20057;-65
2022/04/03 05:28:12;;;;;;;17.80;12.65;;;32.10;98.70;;;;;;5049729;28;20033;-65
2022/04/03 05:30:38;;;;;;;17.85;11.90;;;32.00;99.90;;;;;;5053348;28;20044;-64
2022/04/03 05:33:05;;;;;;;17.15;12.68;;;31.80;99.60;;;;;;5053282;28;20035;-64
2022/04/03 05:35:32;;;;;;;16.67;12.20;;;31.70;99.20;;;;;;5053544;28;20495;-64
2022/04/03 05:37:59;;;;;;;16.13;11.68;;;31.60;99.70;;;;;;5053332;28;20047;-64
2022/04/03 05:40:25;;;;;;;18.00;12.82;;;31.60;99.90;;;;;;5052565;28;20094;-64
2022/04/03 05:42:53;;;;;;;16.80;12.07;;;31.50;99.70;;;;;;5052394;28;20028;-64
2022/04/03 05:45:19;;;;;;;15.10;12.00;;;31.50;99.90;;;;;;5051516;28;20029;-64
2022/04/03 05:47:46;;;;;;;16.90;11.93;;;31.40;99.90;;;;;;5052963;28;20032;-65
2022/04/03 05:50:16;;;;;;;17.85;11.68;;;31.50;99.90;;;;;;5052847;28;20017;-64
2022/04/03 05:52:48;;;;;;;14.25;11.45;;;31.60;99.90;;;;;;5052868;28;20021;-64
2022/04/03 05:55:16;;;;;;;19.77;12.43;;;31.70;99.90;;;;;;5053030;28;20351;-64
2022/04/03 05:57:44;;;;;;;19.10;13.25;;;31.80;99.50;;;;;;5052433;28;20045;-64
2022/04/03 06:00:13;;;;;;;15.60;12.25;;;32.00;98.80;;;;;;5053602;28;20032;-64
2022/04/03 06:02:59;;;;;;;16.80;13.65;;;32.00;99.50;;;;;;5052960;28;20040;-64
2022/04/03 06:05:29;;;;;;;18.10;12.52;;;32.00;99.30;;;;;;5053069;28;20476;-64
2022/04/03 06:07:56;;;;;;;13.20;11.60;;;32.10;99.10;;;;;;5054012;28;20476;-63
2022/04/03 06:10:25;;;;;;;13.55;11.70;;;32.10;97.80;;;;;;5073167;28;20021;-68
2022/04/03 06:12:59;;;;;;;17.02;11.98;;;32.10;98.30;;;;;;5073267;28;20017;-67
2022/04/03 06:15:33;;;;;;;15.10;12.13;;;32.10;98.50;;;;;;5073390;28;20021;-65
2022/04/03 06:18:01;;;;;;;17.65;12.52;;;32.00;98.40;;;;;;5058397;28;20029;-64
2022/04/03 06:20:28;;;;;;;14.85;12.23;;;31.80;99.20;;;;;;5050505;28;20090;-64
2022/04/03 06:22:55;;;;;;;14.82;11.60;;;31.80;98.90;;;;;;5056520;28;20130;-66
2022/04/03 06:25:23;;;;;;;17.48;13.95;;;31.60;97.90;;;;;;5055966;28;20388;-67
2022/04/03 06:27:51;;;;;;;15.90;13.02;;;31.60;97.80;;;;;;5056965;28;20475;-66
2022/04/03 06:30:18;;;;;;;18.73;13.65;;;31.50;97.50;;;;;;5056601;28;20029;-66
2022/04/03 06:32:45;;;;;;;16.13;13.25;;;31.50;97.80;;;;;;5056440;28;20123;-65
2022/04/03 06:35:12;;;;;;;20.63;13.85;;;31.50;97.10;;;;;;5056566;28;20178;-66
2022/04/03 06:37:38;;;;;;;18.10;13.38;;;31.50;98.50;;;;;;5056353;28;20099;-66
2022/04/03 06:40:07;;;;;;;16.50;13.13;;;31.50;98.80;;;;;;5056543;28;20021;-66
2022/04/03 06:42:37;;;;;;;18.45;14.02;;;31.50;99.00;;;;;;5056348;28;20021;-67
2022/04/03 06:45:04;;;;;;;21.33;13.88;;;31.60;99.10;;;;;;5056216;28;20484;-65
2022/04/03 06:47:32;;;;;;;19.67;13.68;;;31.60;99.00;;;;;;5055191;28;20029;-66
2022/04/03 06:49:59;;;;;;;16.80;13.02;;;31.70;99.60;;;;;;5054547;28;20568;-65
2022/04/03 06:52:26;;;;;;;19.83;13.15;;;31.90;98.10;;;;;;5055181;28;20033;-65
2022/04/03 06:54:53;;;;;;;18.27;13.60;;;32.10;98.00;;;;;;5054686;28;20021;-64
2022/04/03 06:57:19;;;;;;;18.95;13.98;;;32.10;96.90;;;;;;5054059;28;20036;-65
2022/04/03 06:59:46;;;;;;;16.95;12.98;;;32.20;97.40;;;;;;5055058;28;20482;-66
2022/04/03 07:02:13;;;;;;;18.58;13.95;;;32.30;97.60;;;;;;5055630;28;20017;-65
2022/04/03 07:04:39;;;;;;;19.27;14.35;;;32.50;96.40;;;;;;5055918;28;20161;-67
2022/04/03 07:07:06;;;;;;;17.75;13.93;;;32.50;95.20;;;;;;5055442;28;20029;-66
2022/04/03 07:09:37;;;;;;;20.15;13.95;;;32.60;95.90;;;;;;5055595;28;20025;-66
2022/04/03 07:12:04;;;;;;;17.85;13.85;;;32.70;96.00;;;;;;5055550;28;20395;-68
2022/04/03 07:14:31;;;;;;;20.15;14.13;;;32.80;94.30;;;;;;5055989;28;20036;-66
2022/04/03 07:16:57;;;;;;;23.13;13.98;;;32.70;95.30;;;;;;5055487;28;20039;-65
2022/04/03 07:19:25;;;;;;;25.42;17.95;;;32.70;95.10;;;;;;5055863;28;20426;-66
2022/04/03 07:21:51;;;;;;;19.40;14.00;;;32.60;95.40;;;;;;5055777;28;20063;-67
2022/04/03 07:24:21;;;;;;;17.95;14.13;;;32.60;94.40;;;;;;5055473;28;20025;-67
2022/04/03 07:26:47;;;;;;;16.35;14.02;;;32.60;94.60;;;;;;5055267;28;20443;-66
2022/04/03 07:29:15;;;;;;;22.92;14.18;;;32.60;94.90;;;;;;5055526;28;20052;-66
2022/04/03 07:31:42;;;;;;;18.02;13.63;;;32.70;94.90;;;;;;5055544;28;20029;-65
2022/04/03 07:34:08;;;;;;;16.95;13.85;;;32.80;94.80;;;;;;5055287;28;20687;-65
2022/04/03 07:36:35;;;;;;;23.65;14.48;;;32.90;94.80;;;;;;5055149;28;20029;-65
2022/04/03 07:39:02;;;;;;;17.25;14.18;;;33.10;93.70;;;;;;5055212;28;20017;-65
2022/04/03 07:41:29;;;;;;;20.30;15.43;;;33.00;93.50;;;;;;5054873;28;20533;-66
2022/04/03 07:43:55;;;;;;;23.38;15.88;;;32.90;94.10;;;;;;5052498;28;20070;-67
2022/04/03 07:46:22;;;;;;;18.50;14.60;;;33.00;92.80;;;;;;5046612;28;20537;-65
2022/04/03 07:48:49;;;;;;;15.55;13.73;;;33.00;92.90;;;;;;5038872;28;20132;-64
2022/04/03 07:51:15;;;;;;;25.10;16.45;;;33.00;92.00;;;;;;5053022;28;20522;-64
2022/04/03 07:53:42;;;;;;;18.10;14.27;;;33.00;92.40;;;;;;5054942;28;20491;-65
2022/04/03 07:56:09;;;;;;;17.42;15.35;;;32.80;92.60;;;;;;5054906;28;20021;-67
2022/04/03 07:58:36;;;;;;;20.92;16.92;;;32.80;91.80;;;;;;5054649;28;20068;-66
2022/04/03 08:01:04;;;;;;;18.77;15.07;;;32.70;91.70;;;;;;5054777;28;20100;-65
2022/04/03 08:03:31;;;;;;;27.67;22.00;;;32.60;91.60;;;;;;5054784;28;20029;-67
2022/04/03 08:05:57;;;;;;;24.70;19.25;;;32.50;92.30;;;;;;5054981;28;20024;-69
2022/04/03 08:08:24;;;;;;;23.88;15.77;;;32.20;92.50;;;;;;5054280;28;20476;-68
2022/04/03 08:10:51;;;;;;;31.40;21.85;;;31.90;93.00;;;;;;5054078;28;20021;-69
2022/04/03 08:13:20;;;;;;;25.33;18.25;;;31.70;93.90;;;;;;5054019;28;20025;-70
2022/04/03 08:15:48;;;;;;;32.22;21.35;;;31.70;94.30;;;;;;5054215;28;20063;-67
2022/04/03 08:18:16;;;;;;;35.67;21.42;;;31.80;94.00;;;;;;5054708;28;20025;-66
2022/04/03 08:20:43;;;;;;;24.15;18.42;;;31.80;94.10;;;;;;5054736;28;20064;-67
2022/04/03 08:23:11;;;;;;;28.50;20.67;;;31.80;94.20;;;;;;5054170;28;20522;-67
2022/04/03 08:25:39;;;;;;;28.67;22.85;;;31.70;94.10;;;;;;5054089;28;20021;-66
2022/04/03 08:28:09;;;;;;;29.27;20.92;;;31.60;94.20;;;;;;5053880;28;20021;-66
2022/04/03 08:30:38;;;;;;;66.10;42.30;;;31.50;94.20;;;;;;5052022;28;20060;-68
2022/04/03 08:33:06;;;;;;;35.97;23.10;;;31.40;95.00;;;;;;5051320;28;20029;-70
2022/04/03 08:35:38;;;;;;;33.45;23.05;;;31.20;95.20;;;;;;5053934;28;20060;-66
2022/04/03 08:38:05;;;;;;;33.72;22.55;;;31.10;96.30;;;;;;5049777;28;20021;-65
2022/04/03 08:40:33;;;;;;;31.38;23.33;;;31.00;96.80;;;;;;5051736;28;20020;-67
2022/04/03 08:43:04;;;;;;;32.17;23.52;;;30.80;97.50;;;;;;5053235;28;20025;-64
2022/04/03 08:45:31;;;;;;;32.67;20.83;;;30.80;97.50;;;;;;5053419;28;20052;-65
2022/04/03 08:48:00;;;;;;;29.30;18.70;;;30.50;97.40;;;;;;5053408;28;20067;-65
2022/04/03 08:50:31;;;;;;;32.85;26.48;;;30.40;98.00;;;;;;5053327;28;20028;-65
2022/04/03 08:53:01;;;;;;;30.80;23.10;;;30.40;98.60;;;;;;5051239;28;20032;-65
2022/04/03 08:55:29;;;;;;;33.33;27.23;;;30.30;97.90;;;;;;5053094;28;20074;-65
2022/04/03 08:57:56;;;;;;;39.50;31.73;;;30.40;98.70;;;;;;5051004;28;20414;-65
2022/04/03 09:00:23;;;;;;;35.80;26.92;;;30.30;98.50;;;;;;5052752;28;20072;-65
2022/04/03 09:02:50;;;;;;;32.85;22.90;;;30.30;98.80;;;;;;5052639;28;20053;-65
2022/04/03 09:05:18;;;;;;;47.80;36.53;;;30.20;99.30;;;;;;5055443;28;20474;-68
2022/04/03 09:07:58;;;;;;;32.20;25.63;;;30.20;99.50;;;;;;5062847;28;20072;-65
2022/04/03 09:10:25;;;;;;;34.50;26.13;;;30.10;99.90;;;;;;5061016;28;20024;-67
2022/04/03 09:12:52;;;;;;;31.75;23.23;;;30.30;99.90;;;;;;5061630;28;20025;-67
2022/04/03 09:15:23;;;;;;;35.42;26.58;;;30.30;99.90;;;;;;5061318;28;20503;-63
2022/04/03 09:17:53;;;;;;;33.03;23.73;;;30.20;99.90;;;;;;5052828;28;20037;-67
2022/04/03 09:20:22;;;;;;;36.92;24.52;;;30.00;99.90;;;;;;5059174;28;20025;-69
2022/04/03 09:22:58;;;;;;;34.65;25.25;;;30.00;99.90;;;;;;5054498;28;20091;-66
2022/04/03 09:25:28;;;;;;;38.20;26.98;;;30.00;99.90;;;;;;5052825;28;20032;-68
2022/04/03 09:27:57;;;;;;;43.30;28.98;;;30.00;99.90;;;;;;5051620;28;20021;-65
2022/04/03 09:30:31;;;;;;;48.45;33.30;;;30.10;99.90;;;;;;5052938;28;20036;-67
2022/04/03 09:33:00;;;;;;;50.00;35.92;;;30.10;99.90;;;;;;5060915;28;20025;-64
2022/04/03 09:35:31;;;;;;;42.38;29.35;;;30.10;99.90;;;;;;5052735;28;20071;-66
2022/04/03 09:38:17;;;;;;;42.08;28.88;;;30.20;99.90;;;;;;5053396;28;20029;-66
2022/04/03 09:40:47;;;;;;;37.78;24.02;;;30.30;99.90;;;;;;5052285;28;20028;-63
2022/04/03 09:43:17;;;;;;;34.17;23.52;;;30.20;99.90;;;;;;5051809;28;20025;-67
2022/04/03 09:45:57;;;;;;;31.80;24.33;;;30.20;99.90;;;;;;5052343;28;20029;-66
2022/04/03 09:48:26;;;;;;;62.40;40.40;;;30.30;99.90;;;;;;5050935;28;20028;-66
2022/04/03 09:51:05;;;;;;;81.85;52.50;;;30.30;99.90;;;;;;5049188;28;21580;-65
2022/04/03 09:53:42;;;;;;;75.50;50.42;;;30.20;99.90;;;;;;5051138;28;20025;-66
2022/04/03 09:56:11;;;;;;;82.68;51.38;;;30.20;99.90;;;;;;5054469;28;20293;-68
2022/04/03 09:59:02;;;;;;;80.68;50.17;;;30.10;99.90;;;;;;5055316;28;20037;-65
2022/04/03 10:01:34;;;;;;;93.85;54.47;;;30.10;99.90;;;;;;5055710;28;20029;-67
2022/04/03 10:04:05;;;;;;;73.00;45.13;;;30.10;99.90;;;;;;5055259;28;20017;-67
2022/04/03 10:06:33;;;;;;;102.10;59.40;;;30.10;99.90;;;;;;5055298;28;20036;-66
2022/04/03 10:09:00;;;;;;;99.47;60.45;;;30.10;99.90;;;;;;5055808;28;20036;-66
2022/04/03 10:11:29;;;;;;;69.00;43.55;;;30.10;99.90;;;;;;5054706;28;20032;-65
2022/04/03 10:13:56;;;;;;;42.78;28.17;;;30.10;99.90;;;;;;5056696;28;20189;-66
2022/04/03 10:16:23;;;;;;;40.33;28.05;;;30.10;99.90;;;;;;5057103;28;20048;-67
2022/04/03 10:18:51;;;;;;;46.00;26.80;;;30.10;99.90;;;;;;5057121;28;20040;-66
2022/04/03 10:21:23;;;;;;;34.97;27.40;;;30.10;99.90;;;;;;5057279;28;20155;-66
2022/04/03 10:23:53;;;;;;;38.28;27.13;;;30.20;99.90;;;;;;5050553;28;20437;-66
2022/04/03 10:26:22;;;;;;;40.33;24.85;;;30.20;99.90;;;;;;5046938;28;20381;-66
2022/04/03 10:28:54;;;;;;;42.03;25.83;;;30.20;99.90;;;;;;5057029;28;20029;-65
2022/04/03 10:31:22;;;;;;;49.65;34.45;;;30.20;99.90;;;;;;5056918;28;20024;-69
2022/04/03 10:33:51;;;;;;;87.53;57.42;;;30.20;99.90;;;;;;5055016;28;20028;-63
2022/04/03 10:36:31;;;;;;;89.80;57.65;;;30.10;99.90;;;;;;5056206;28;20112;-66
2022/04/03 10:39:11;;;;;;;66.10;40.22;;;30.00;99.90;;;;;;5054078;28;20017;-64
2022/04/03 10:41:42;;;;;;;68.65;45.08;;;29.90;99.90;;;;;;5053354;28;20016;-64
2022/04/03 10:44:12;;;;;;;72.77;47.30;;;29.80;99.90;;;;;;5055628;28;20063;-65
2022/04/03 10:46:59;;;;;;;71.57;45.60;;;29.80;99.90;;;;;;5055247;28;20507;-65
2022/04/03 10:49:30;;;;;;;57.17;32.58;;;29.80;99.90;;;;;;5052632;28;20397;-65
2022/04/03 10:52:07;;;;;;;40.85;25.38;;;29.80;99.90;;;;;;5052452;28;20025;-66
2022/04/03 10:54:43;;;;;;;38.53;24.88;;;29.70;99.90;;;;;;5056046;28;20028;-65
2022/04/03 10:57:40;;;;;;;29.35;21.50;;;29.50;99.90;;;;;;5055636;28;20037;-66
2022/04/03 11:00:27;;;;;;;30.90;20.55;;;29.30;99.90;;;;;;5042691;28;20124;-67
2022/04/03 11:03:12;;;;;;;31.58;20.77;;;29.20;99.90;;;;;;5048840;28;20384;-65
2022/04/03 11:05:41;;;;;;;35.65;27.40;;;29.30;99.90;;;;;;5055723;28;20442;-65
2022/04/03 11:08:07;;;;;;;37.53;25.77;;;29.30;99.90;;;;;;5056368;28;20440;-66
2022/04/03 11:10:48;;;;;;;35.45;23.83;;;29.40;99.90;;;;;;5052440;28;20092;-66
2022/04/03 11:13:15;;;;;;;34.70;25.20;;;29.30;99.90;;;;;;5054606;28;20031;-66
2022/04/03 11:16:00;;;;;;;41.22;26.55;;;29.20;99.90;;;;;;5054844;28;20051;-65
2022/04/03 11:18:39;;;;;;;36.47;28.52;;;29.30;99.90;;;;;;5055585;28;20025;-65
2022/04/03 11:21:28;;;;;;;40.47;29.48;;;29.30;99.90;;;;;;5055291;28;20029;-66
2022/04/03 11:24:01;;;;;;;37.90;27.35;;;29.40;99.90;;;;;;5055566;28;20116;-64
2022/04/03 11:26:28;;;;;;;31.88;22.17;;;29.20;99.90;;;;;;5055499;28;20025;-64
2022/04/03 11:28:55;;;;;;;31.95;22.27;;;29.00;99.90;;;;;;5055571;28;20124;-65
2022/04/03 11:31:22;;;;;;;27.30;22.60;;;29.00;99.90;;;;;;5053745;28;20032;-65
2022/04/03 11:33:50;;;;;;;31.30;22.33;;;28.90;99.90;;;;;;5045271;28;20221;-66
2022/04/03 11:36:19;;;;;;;33.53;23.15;;;29.00;99.90;;;;;;5055540;28;20465;-67
2022/04/03 11:38:48;;;;;;;31.75;24.65;;;29.00;99.90;;;;;;5053205;28;20029;-65
2022/04/03 11:41:22;;;;;;;36.47;26.20;;;29.00;99.90;;;;;;5054518;28;20078;-65
2022/04/03 11:44:09;;;;;;;45.50;32.72;;;28.90;99.90;;;;;;5055882;28;20464;-65
2022/04/03 11:46:41;;;;;;;35.53;27.55;;;28.80;99.90;;;;;;5055248;28;20021;-64
2022/04/03 11:49:22;;;;;;;32.10;25.08;;;29.00;99.90;;;;;;5055893;28;20025;-65
2022/04/03 11:51:54;;;;;;;33.90;25.98;;;28.90;99.90;;;;;;5054965;28;20021;-67
2022/04/03 11:54:21;;;;;;;39.85;24.30;;;28.70;99.90;;;;;;5055544;28;20029;-66
2022/04/03 11:56:48;;;;;;;203.82;123.57;;;28.60;99.90;;;;;;5054904;28;20029;-67
2022/04/03 11:59:15;;;;;;;50.60;34.78;;;28.60;99.90;;;;;;5054665;28;20443;-65
2022/04/03 12:01:57;;;;;;;93.57;66.22;;;28.60;99.90;;;;;;5054495;28;20025;-67
2022/04/03 12:04:24;;;;;;;197.75;156.02;;;28.60;99.90;;;;;;5035947;28;20425;-66
2022/04/03 12:06:58;;;;;;;107.78;86.72;;;28.60;99.90;;;;;;5051044;28;20024;-67
2022/04/03 12:09:27;;;;;;;67.57;52.05;;;28.50;99.90;;;;;;5055265;28;20032;-67
2022/04/03 12:11:54;;;;;;;36.95;28.63;;;28.40;99.90;;;;;;5054338;28;20033;-69
2022/04/03 12:14:32;;;;;;;34.70;25.35;;;28.50;99.90;;;;;;5053696;28;20406;-65
2022/04/03 12:17:03;;;;;;;37.30;25.05;;;28.60;99.90;;;;;;5034275;28;20039;-67
2022/04/03 12:19:34;;;;;;;36.35;22.58;;;28.60;99.90;;;;;;5052226;28;20098;-68
2022/04/03 12:22:04;;;;;;;40.60;26.13;;;28.70;99.90;;;;;;5049501;28;20021;-68
2022/04/03 12:24:33;;;;;;;38.40;24.45;;;28.70;99.90;;;;;;5051370;28;20487;-67
2022/04/03 12:27:06;;;;;;;36.40;24.23;;;28.60;99.90;;;;;;5053510;28;20052;-67
2022/04/03 12:29:35;;;;;;;33.28;25.23;;;28.60;99.90;;;;;;5052806;28;20029;-66
2022/04/03 12:32:07;;;;;;;40.72;26.08;;;28.60;99.90;;;;;;5053764;28;20506;-66
2022/04/03 12:34:41;;;;;;;35.35;24.30;;;28.60;99.90;;;;;;5051511;28;20583;-66